sensor_id;sensor_type;location;lat;lon;timestamp;P1;durP1;ratioP1;P2;durP2;ratioP2
40793;SDS011;26502;51.886;15.604;2024-03-25T00:02:05;7.40;;;4.60;;
40793;SDS011;26502;51.886;15.604;2024-03-25T00:07:31;4.80;;;4.10;;
40793;SDS011;26502;51.886;15.604;2024-03-25T00:12:57;6.00;;;4.30;;
40793;SDS011;26502;51.886;15.604;2024-03-25T00:18:23;5.30;;;4.30;;
40793;SDS011;26502;51.886;15.604;2024-03-25T00:23:49;48.50;;;22.90;;
40793;SDS011;26502;51.886;15.604;2024-03-25T00:29:15;7.00;;;5.20;;
40793;SDS011;26502;51.886;15.604;2024-03-25T00:34:41;4.40;;;4.00;;
40793;SDS011;26502;51.886;15.604;2024-03-25T00:40:08;5.30;;;4.70;;
40793;SDS011;26502;51.886;15.604;2024-03-25T00:45:34;5.40;;;4.20;;
40793;SDS011;26502;51.886;15.604;2024-03-25T00:51:00;6.80;;;5.20;;
40793;SDS011;26502;51.886;15.604;2024-03-25T00:56:26;5.90;;;4.70;;
40793;SDS011;26502;51.886;15.604;2024-03-25T01:01:53;8.10;;;6.30;;
40793;SDS011;26502;51.886;15.604;2024-03-25T01:07:18;7.90;;;5.90;;
40793;SDS011;26502;51.886;15.604;2024-03-25T01:12:44;6.30;;;4.70;;
40793;SDS011;26502;51.886;15.604;2024-03-25T01:18:12;4.90;;;4.40;;
40793;SDS011;26502;51.886;15.604;2024-03-25T01:23:37;6.00;;;4.80;;
40793;SDS011;26502;51.886;15.604;2024-03-25T01:29:03;5.40;;;4.80;;
40793;SDS011;26502;51.886;15.604;2024-03-25T01:34:30;7.20;;;6.50;;
40793;SDS011;26502;51.886;15.604;2024-03-25T01:39:56;6.00;;;5.40;;
40793;SDS011;26502;51.886;15.604;2024-03-25T01:45:22;7.00;;;4.80;;
40793;SDS011;26502;51.886;15.604;2024-03-25T01:50:48;6.70;;;5.30;;
40793;SDS011;26502;51.886;15.604;2024-03-25T01:56:15;5.40;;;4.70;;
40793;SDS011;26502;51.886;15.604;2024-03-25T02:01:43;6.10;;;4.80;;
40793;SDS011;26502;51.886;15.604;2024-03-25T02:07:10;8.90;;;6.20;;
40793;SDS011;26502;51.886;15.604;2024-03-25T02:12:37;7.70;;;5.60;;
40793;SDS011;26502;51.886;15.604;2024-03-25T02:18:05;7.00;;;4.80;;
40793;SDS011;26502;51.886;15.604;2024-03-25T02:23:32;4.50;;;4.00;;
40793;SDS011;26502;51.886;15.604;2024-03-25T02:28:58;4.50;;;3.90;;
40793;SDS011;26502;51.886;15.604;2024-03-25T02:34:24;4.90;;;3.40;;
40793;SDS011;26502;51.886;15.604;2024-03-25T02:39:50;3.40;;;3.10;;
40793;SDS011;26502;51.886;15.604;2024-03-25T02:45:17;3.80;;;3.40;;
40793;SDS011;26502;51.886;15.604;2024-03-25T02:50:43;3.60;;;3.00;;
40793;SDS011;26502;51.886;15.604;2024-03-25T02:56:09;5.00;;;3.00;;
40793;SDS011;26502;51.886;15.604;2024-03-25T03:01:35;4.60;;;2.80;;
40793;SDS011;26502;51.886;15.604;2024-03-25T03:07:00;3.30;;;3.00;;
40793;SDS011;26502;51.886;15.604;2024-03-25T03:12:26;3.30;;;2.70;;
40793;SDS011;26502;51.886;15.604;2024-03-25T03:17:52;2.90;;;2.70;;
40793;SDS011;26502;51.886;15.604;2024-03-25T03:23:18;2.40;;;1.90;;
40793;SDS011;26502;51.886;15.604;2024-03-25T03:28:43;1.70;;;1.60;;
40793;SDS011;26502;51.886;15.604;2024-03-25T03:34:09;1.70;;;1.60;;
40793;SDS011;26502;51.886;15.604;2024-03-25T03:39:35;2.00;;;1.70;;
40793;SDS011;26502;51.886;15.604;2024-03-25T03:45:00;3.90;;;1.50;;
40793;SDS011;26502;51.886;15.604;2024-03-25T03:50:26;2.30;;;1.70;;
40793;SDS011;26502;51.886;15.604;2024-03-25T03:55:55;2.00;;;1.40;;
40793;SDS011;26502;51.886;15.604;2024-03-25T04:01:21;1.60;;;1.50;;
40793;SDS011;26502;51.886;15.604;2024-03-25T04:06:48;1.40;;;1.30;;
40793;SDS011;26502;51.886;15.604;2024-03-25T04:12:16;1.40;;;1.30;;
40793;SDS011;26502;51.886;15.604;2024-03-25T04:17:42;2.60;;;1.20;;
40793;SDS011;26502;51.886;15.604;2024-03-25T04:23:08;1.80;;;1.20;;
40793;SDS011;26502;51.886;15.604;2024-03-25T04:28:34;1.30;;;1.20;;
40793;SDS011;26502;51.886;15.604;2024-03-25T04:34:00;2.50;;;1.00;;
40793;SDS011;26502;51.886;15.604;2024-03-25T04:39:27;1.20;;;1.10;;
40793;SDS011;26502;51.886;15.604;2024-03-25T04:44:53;1.80;;;1.10;;
40793;SDS011;26502;51.886;15.604;2024-03-25T04:50:19;1.20;;;1.10;;
40793;SDS011;26502;51.886;15.604;2024-03-25T04:55:44;1.50;;;1.30;;
40793;SDS011;26502;51.886;15.604;2024-03-25T05:01:11;2.10;;;1.90;;
40793;SDS011;26502;51.886;15.604;2024-03-25T05:06:37;2.00;;;1.80;;
40793;SDS011;26502;51.886;15.604;2024-03-25T05:12:04;1.90;;;1.70;;
40793;SDS011;26502;51.886;15.604;2024-03-25T05:17:30;2.10;;;1.80;;
40793;SDS011;26502;51.886;15.604;2024-03-25T05:22:55;2.60;;;2.20;;
40793;SDS011;26502;51.886;15.604;2024-03-25T05:28:21;3.30;;;2.30;;
40793;SDS011;26502;51.886;15.604;2024-03-25T05:33:48;2.40;;;2.20;;
40793;SDS011;26502;51.886;15.604;2024-03-25T05:39:14;3.60;;;2.50;;
40793;SDS011;26502;51.886;15.604;2024-03-25T05:44:39;5.60;;;3.40;;
40793;SDS011;26502;51.886;15.604;2024-03-25T05:50:06;3.60;;;2.80;;
40793;SDS011;26502;51.886;15.604;2024-03-25T05:55:34;3.40;;;3.10;;
40793;SDS011;26502;51.886;15.604;2024-03-25T06:01:00;34.10;;;22.30;;
40793;SDS011;26502;51.886;15.604;2024-03-25T06:06:29;38.90;;;21.80;;
40793;SDS011;26502;51.886;15.604;2024-03-25T06:11:55;35.00;;;22.40;;
40793;SDS011;26502;51.886;15.604;2024-03-25T06:17:21;44.10;;;28.40;;
40793;SDS011;26502;51.886;15.604;2024-03-25T06:22:47;7.40;;;5.10;;
40793;SDS011;26502;51.886;15.604;2024-03-25T06:28:13;3.20;;;2.60;;
40793;SDS011;26502;51.886;15.604;2024-03-25T06:33:39;3.90;;;3.30;;
40793;SDS011;26502;51.886;15.604;2024-03-25T06:39:18;4.80;;;3.90;;
40793;SDS011;26502;51.886;15.604;2024-03-25T06:44:44;2.90;;;2.10;;
40793;SDS011;26502;51.886;15.604;2024-03-25T06:50:13;6.60;;;4.10;;
40793;SDS011;26502;51.886;15.604;2024-03-25T06:55:39;1.90;;;1.80;;
40793;SDS011;26502;51.886;15.604;2024-03-25T07:01:05;4.80;;;2.70;;
40793;SDS011;26502;51.886;15.604;2024-03-25T07:06:34;16.50;;;9.40;;
40793;SDS011;26502;51.886;15.604;2024-03-25T07:12:00;4.70;;;3.10;;
40793;SDS011;26502;51.886;15.604;2024-03-25T07:17:27;49.30;;;22.70;;
40793;SDS011;26502;51.886;15.604;2024-03-25T07:22:53;11.50;;;7.10;;
40793;SDS011;26502;51.886;15.604;2024-03-25T07:28:18;12.00;;;8.90;;
40793;SDS011;26502;51.886;15.604;2024-03-25T07:33:44;11.90;;;7.60;;
40793;SDS011;26502;51.886;15.604;2024-03-25T07:39:09;24.50;;;16.30;;
40793;SDS011;26502;51.886;15.604;2024-03-25T07:44:35;64.90;;;37.60;;
40793;SDS011;26502;51.886;15.604;2024-03-25T07:50:02;10.00;;;8.40;;
40793;SDS011;26502;51.886;15.604;2024-03-25T07:55:32;5.60;;;4.00;;
40793;SDS011;26502;51.886;15.604;2024-03-25T08:00:58;4.30;;;3.30;;
40793;SDS011;26502;51.886;15.604;2024-03-25T08:06:24;3.90;;;3.00;;
40793;SDS011;26502;51.886;15.604;2024-03-25T08:11:50;4.90;;;3.80;;
40793;SDS011;26502;51.886;15.604;2024-03-25T08:17:16;9.50;;;8.00;;
40793;SDS011;26502;51.886;15.604;2024-03-25T08:22:42;3.80;;;3.40;;
40793;SDS011;26502;51.886;15.604;2024-03-25T08:28:08;4.30;;;2.90;;
40793;SDS011;26502;51.886;15.604;2024-03-25T08:33:34;3.10;;;2.60;;
40793;SDS011;26502;51.886;15.604;2024-03-25T08:39:01;3.40;;;2.70;;
40793;SDS011;26502;51.886;15.604;2024-03-25T08:44:27;3.70;;;2.80;;
40793;SDS011;26502;51.886;15.604;2024-03-25T08:49:53;4.50;;;2.90;;
40793;SDS011;26502;51.886;15.604;2024-03-25T08:55:20;6.40;;;4.80;;
40793;SDS011;26502;51.886;15.604;2024-03-25T09:00:48;16.20;;;10.70;;
40793;SDS011;26502;51.886;15.604;2024-03-25T09:06:13;7.00;;;5.20;;
40793;SDS011;26502;51.886;15.604;2024-03-25T09:11:40;39.70;;;23.50;;
40793;SDS011;26502;51.886;15.604;2024-03-25T09:17:06;29.30;;;20.80;;
40793;SDS011;26502;51.886;15.604;2024-03-25T09:22:33;49.90;;;30.80;;
40793;SDS011;26502;51.886;15.604;2024-03-25T09:27:58;62.00;;;22.80;;
40793;SDS011;26502;51.886;15.604;2024-03-25T09:33:25;95.80;;;33.60;;
40793;SDS011;26502;51.886;15.604;2024-03-25T09:38:51;77.50;;;30.20;;
40793;SDS011;26502;51.886;15.604;2024-03-25T09:44:16;64.40;;;27.20;;
40793;SDS011;26502;51.886;15.604;2024-03-25T09:49:46;5.10;;;4.50;;
40793;SDS011;26502;51.886;15.604;2024-03-25T09:55:13;34.20;;;16.70;;
40793;SDS011;26502;51.886;15.604;2024-03-25T10:00:58;42.80;;;28.40;;
40793;SDS011;26502;51.886;15.604;2024-03-25T10:06:24;14.00;;;9.90;;
40793;SDS011;26502;51.886;15.604;2024-03-25T10:11:52;8.40;;;6.80;;
40793;SDS011;26502;51.886;15.604;2024-03-25T10:17:19;12.80;;;9.10;;
40793;SDS011;26502;51.886;15.604;2024-03-25T10:22:46;3.60;;;3.10;;
40793;SDS011;26502;51.886;15.604;2024-03-25T10:28:12;1.60;;;1.50;;
40793;SDS011;26502;51.886;15.604;2024-03-25T10:33:38;1.30;;;1.20;;
40793;SDS011;26502;51.886;15.604;2024-03-25T10:39:04;2.30;;;1.10;;
40793;SDS011;26502;51.886;15.604;2024-03-25T10:44:30;1.20;;;1.10;;
40793;SDS011;26502;51.886;15.604;2024-03-25T10:49:57;1.80;;;1.50;;
40793;SDS011;26502;51.886;15.604;2024-03-25T10:55:25;1.80;;;0.90;;
40793;SDS011;26502;51.886;15.604;2024-03-25T11:00:54;2.50;;;1.00;;
40793;SDS011;26502;51.886;15.604;2024-03-25T11:06:21;0.80;;;0.70;;
40793;SDS011;26502;51.886;15.604;2024-03-25T11:11:46;0.70;;;0.50;;
40793;SDS011;26502;51.886;15.604;2024-03-25T11:17:15;0.60;;;0.60;;
40793;SDS011;26502;51.886;15.604;2024-03-25T11:22:48;0.60;;;0.50;;
40793;SDS011;26502;51.886;15.604;2024-03-25T11:28:14;0.80;;;0.80;;
40793;SDS011;26502;51.886;15.604;2024-03-25T11:33:51;1.10;;;0.70;;
40793;SDS011;26502;51.886;15.604;2024-03-25T11:39:16;1.70;;;0.60;;
40793;SDS011;26502;51.886;15.604;2024-03-25T11:44:42;1.30;;;0.80;;
40793;SDS011;26502;51.886;15.604;2024-03-25T11:50:09;1.20;;;1.10;;
40793;SDS011;26502;51.886;15.604;2024-03-25T11:55:35;3.40;;;1.20;;
40793;SDS011;26502;51.886;15.604;2024-03-25T12:01:03;1.20;;;1.10;;
40793;SDS011;26502;51.886;15.604;2024-03-25T12:06:31;1.30;;;1.20;;
40793;SDS011;26502;51.886;15.604;2024-03-25T12:11:57;2.30;;;2.10;;
40793;SDS011;26502;51.886;15.604;2024-03-25T12:17:23;1.90;;;1.80;;
40793;SDS011;26502;51.886;15.604;2024-03-25T12:22:52;2.30;;;2.00;;
40793;SDS011;26502;51.886;15.604;2024-03-25T12:28:18;2.70;;;1.80;;
40793;SDS011;26502;51.886;15.604;2024-03-25T12:33:45;3.20;;;2.00;;
40793;SDS011;26502;51.886;15.604;2024-03-25T12:39:16;1.60;;;1.50;;
40793;SDS011;26502;51.886;15.604;2024-03-25T12:44:42;2.10;;;1.90;;
40793;SDS011;26502;51.886;15.604;2024-03-25T12:50:09;2.60;;;2.00;;
40793;SDS011;26502;51.886;15.604;2024-03-25T12:55:35;2.50;;;2.00;;
40793;SDS011;26502;51.886;15.604;2024-03-25T13:01:01;16.00;;;7.50;;
40793;SDS011;26502;51.886;15.604;2024-03-25T13:06:27;25.20;;;11.20;;
40793;SDS011;26502;51.886;15.604;2024-03-25T13:11:52;43.20;;;17.90;;
40793;SDS011;26502;51.886;15.604;2024-03-25T13:17:18;15.70;;;8.10;;
40793;SDS011;26502;51.886;15.604;2024-03-25T13:22:43;11.90;;;10.80;;
40793;SDS011;26502;51.886;15.604;2024-03-25T13:28:10;15.60;;;11.10;;
40793;SDS011;26502;51.886;15.604;2024-03-25T13:33:36;11.80;;;7.60;;
40793;SDS011;26502;51.886;15.604;2024-03-25T13:39:02;18.30;;;12.50;;
40793;SDS011;26502;51.886;15.604;2024-03-25T13:44:28;14.20;;;9.40;;
40793;SDS011;26502;51.886;15.604;2024-03-25T13:50:01;19.20;;;13.80;;
40793;SDS011;26502;51.886;15.604;2024-03-25T13:55:30;7.60;;;5.80;;
40793;SDS011;26502;51.886;15.604;2024-03-25T14:00:56;5.20;;;2.60;;
40793;SDS011;26502;51.886;15.604;2024-03-25T14:06:22;8.60;;;7.00;;
40793;SDS011;26502;51.886;15.604;2024-03-25T14:11:48;6.00;;;4.80;;
40793;SDS011;26502;51.886;15.604;2024-03-25T14:17:14;3.20;;;2.90;;
40793;SDS011;26502;51.886;15.604;2024-03-25T14:22:39;6.70;;;5.60;;
40793;SDS011;26502;51.886;15.604;2024-03-25T14:28:05;5.30;;;4.80;;
40793;SDS011;26502;51.886;15.604;2024-03-25T14:33:32;6.10;;;4.50;;
40793;SDS011;26502;51.886;15.604;2024-03-25T14:38:58;2.20;;;2.00;;
40793;SDS011;26502;51.886;15.604;2024-03-25T14:44:24;2.70;;;2.50;;
40793;SDS011;26502;51.886;15.604;2024-03-25T14:49:50;2.30;;;1.60;;
40793;SDS011;26502;51.886;15.604;2024-03-25T14:55:18;2.60;;;1.70;;
40793;SDS011;26502;51.886;15.604;2024-03-25T15:00:44;2.40;;;1.60;;
40793;SDS011;26502;51.886;15.604;2024-03-25T15:06:09;2.00;;;1.40;;
40793;SDS011;26502;51.886;15.604;2024-03-25T15:11:35;1.80;;;1.30;;
40793;SDS011;26502;51.886;15.604;2024-03-25T15:17:00;2.50;;;1.30;;
40793;SDS011;26502;51.886;15.604;2024-03-25T15:22:26;3.20;;;1.80;;
40793;SDS011;26502;51.886;15.604;2024-03-25T15:27:52;3.40;;;2.00;;
40793;SDS011;26502;51.886;15.604;2024-03-25T15:33:18;4.50;;;1.50;;
40793;SDS011;26502;51.886;15.604;2024-03-25T15:38:43;1.50;;;1.40;;
40793;SDS011;26502;51.886;15.604;2024-03-25T15:44:09;1.30;;;1.20;;
40793;SDS011;26502;51.886;15.604;2024-03-25T15:49:34;3.40;;;1.80;;
40793;SDS011;26502;51.886;15.604;2024-03-25T15:55:00;2.60;;;1.80;;
40793;SDS011;26502;51.886;15.604;2024-03-25T16:00:26;3.20;;;2.30;;
40793;SDS011;26502;51.886;15.604;2024-03-25T16:05:52;2.10;;;1.80;;
40793;SDS011;26502;51.886;15.604;2024-03-25T16:11:18;4.70;;;2.50;;
40793;SDS011;26502;51.886;15.604;2024-03-25T16:16:44;3.20;;;2.30;;
40793;SDS011;26502;51.886;15.604;2024-03-25T16:22:09;5.70;;;3.10;;
40793;SDS011;26502;51.886;15.604;2024-03-25T16:27:35;4.20;;;3.20;;
40793;SDS011;26502;51.886;15.604;2024-03-25T16:33:01;13.80;;;10.00;;
40793;SDS011;26502;51.886;15.604;2024-03-25T16:38:28;11.40;;;7.50;;
40793;SDS011;26502;51.886;15.604;2024-03-25T16:43:53;15.70;;;10.00;;
40793;SDS011;26502;51.886;15.604;2024-03-25T16:49:23;15.20;;;10.00;;
40793;SDS011;26502;51.886;15.604;2024-03-25T16:54:50;11.70;;;7.40;;
40793;SDS011;26502;51.886;15.604;2024-03-25T17:00:16;12.60;;;8.90;;
40793;SDS011;26502;51.886;15.604;2024-03-25T17:05:43;22.00;;;12.60;;
40793;SDS011;26502;51.886;15.604;2024-03-25T17:11:08;24.20;;;14.70;;
40793;SDS011;26502;51.886;15.604;2024-03-25T17:16:34;21.90;;;13.30;;
40793;SDS011;26502;51.886;15.604;2024-03-25T17:22:01;20.70;;;12.60;;
40793;SDS011;26502;51.886;15.604;2024-03-25T17:27:27;16.40;;;10.40;;
40793;SDS011;26502;51.886;15.604;2024-03-25T17:32:52;18.10;;;9.90;;
40793;SDS011;26502;51.886;15.604;2024-03-25T17:38:18;13.50;;;9.50;;
40793;SDS011;26502;51.886;15.604;2024-03-25T17:43:44;13.80;;;9.60;;
40793;SDS011;26502;51.886;15.604;2024-03-25T17:49:09;14.10;;;9.40;;
40793;SDS011;26502;51.886;15.604;2024-03-25T17:54:36;12.00;;;8.80;;
40793;SDS011;26502;51.886;15.604;2024-03-25T18:00:01;13.10;;;8.20;;
40793;SDS011;26502;51.886;15.604;2024-03-25T18:05:32;9.60;;;7.50;;
40793;SDS011;26502;51.886;15.604;2024-03-25T18:10:58;8.60;;;6.80;;
40793;SDS011;26502;51.886;15.604;2024-03-25T18:16:25;8.60;;;6.20;;
40793;SDS011;26502;51.886;15.604;2024-03-25T18:21:50;9.30;;;6.30;;
40793;SDS011;26502;51.886;15.604;2024-03-25T18:27:17;8.80;;;6.80;;
40793;SDS011;26502;51.886;15.604;2024-03-25T18:32:42;10.40;;;6.70;;
40793;SDS011;26502;51.886;15.604;2024-03-25T18:38:08;10.60;;;6.50;;
40793;SDS011;26502;51.886;15.604;2024-03-25T18:43:36;7.40;;;5.60;;
40793;SDS011;26502;51.886;15.604;2024-03-25T18:49:02;10.90;;;7.10;;
40793;SDS011;26502;51.886;15.604;2024-03-25T18:54:28;7.80;;;5.90;;
40793;SDS011;26502;51.886;15.604;2024-03-25T18:59:54;8.70;;;5.40;;
40793;SDS011;26502;51.886;15.604;2024-03-25T19:05:20;9.10;;;5.00;;
40793;SDS011;26502;51.886;15.604;2024-03-25T19:10:46;8.00;;;4.50;;
40793;SDS011;26502;51.886;15.604;2024-03-25T19:16:11;7.40;;;5.10;;
40793;SDS011;26502;51.886;15.604;2024-03-25T19:21:37;4.70;;;4.20;;
40793;SDS011;26502;51.886;15.604;2024-03-25T19:27:03;6.50;;;4.60;;
40793;SDS011;26502;51.886;15.604;2024-03-25T19:32:30;10.10;;;6.50;;
40793;SDS011;26502;51.886;15.604;2024-03-25T19:37:55;13.70;;;8.10;;
40793;SDS011;26502;51.886;15.604;2024-03-25T19:43:21;23.50;;;15.50;;
40793;SDS011;26502;51.886;15.604;2024-03-25T19:48:47;13.90;;;10.20;;
40793;SDS011;26502;51.886;15.604;2024-03-25T19:54:13;12.00;;;8.10;;
40793;SDS011;26502;51.886;15.604;2024-03-25T19:59:38;11.30;;;7.40;;
40793;SDS011;26502;51.886;15.604;2024-03-25T20:05:04;11.60;;;8.60;;
40793;SDS011;26502;51.886;15.604;2024-03-25T20:10:30;11.50;;;8.20;;
40793;SDS011;26502;51.886;15.604;2024-03-25T20:15:56;13.90;;;8.90;;
40793;SDS011;26502;51.886;15.604;2024-03-25T20:21:22;11.20;;;8.50;;
40793;SDS011;26502;51.886;15.604;2024-03-25T20:26:48;11.40;;;8.30;;
40793;SDS011;26502;51.886;15.604;2024-03-25T20:32:17;12.10;;;8.40;;
40793;SDS011;26502;51.886;15.604;2024-03-25T20:37:46;12.10;;;9.00;;
40793;SDS011;26502;51.886;15.604;2024-03-25T20:43:11;10.60;;;8.00;;
40793;SDS011;26502;51.886;15.604;2024-03-25T20:48:37;22.30;;;12.70;;
40793;SDS011;26502;51.886;15.604;2024-03-25T20:54:03;12.60;;;9.60;;
40793;SDS011;26502;51.886;15.604;2024-03-25T20:59:29;9.90;;;7.70;;
40793;SDS011;26502;51.886;15.604;2024-03-25T21:04:54;15.00;;;9.70;;
40793;SDS011;26502;51.886;15.604;2024-03-25T21:10:20;10.90;;;8.10;;
40793;SDS011;26502;51.886;15.604;2024-03-25T21:15:45;12.00;;;8.50;;
40793;SDS011;26502;51.886;15.604;2024-03-25T21:21:11;14.90;;;9.50;;
40793;SDS011;26502;51.886;15.604;2024-03-25T21:26:36;12.10;;;8.10;;
40793;SDS011;26502;51.886;15.604;2024-03-25T21:32:03;18.00;;;10.80;;
40793;SDS011;26502;51.886;15.604;2024-03-25T21:37:29;15.50;;;9.90;;
40793;SDS011;26502;51.886;15.604;2024-03-25T21:42:55;17.70;;;10.60;;
40793;SDS011;26502;51.886;15.604;2024-03-25T21:48:21;19.40;;;11.40;;
40793;SDS011;26502;51.886;15.604;2024-03-25T21:53:46;19.00;;;11.80;;
40793;SDS011;26502;51.886;15.604;2024-03-25T21:59:13;18.10;;;11.50;;
40793;SDS011;26502;51.886;15.604;2024-03-25T22:04:39;19.50;;;12.10;;
40793;SDS011;26502;51.886;15.604;2024-03-25T22:10:04;17.90;;;12.30;;
40793;SDS011;26502;51.886;15.604;2024-03-25T22:15:31;21.60;;;12.40;;
40793;SDS011;26502;51.886;15.604;2024-03-25T22:20:57;21.00;;;12.60;;
40793;SDS011;26502;51.886;15.604;2024-03-25T22:26:26;21.10;;;13.30;;
40793;SDS011;26502;51.886;15.604;2024-03-25T22:31:54;18.10;;;12.70;;
40793;SDS011;26502;51.886;15.604;2024-03-25T22:37:19;17.90;;;11.90;;
40793;SDS011;26502;51.886;15.604;2024-03-25T22:42:45;17.10;;;11.60;;
40793;SDS011;26502;51.886;15.604;2024-03-25T22:48:11;18.30;;;12.10;;
40793;SDS011;26502;51.886;15.604;2024-03-25T22:53:37;16.40;;;12.20;;
40793;SDS011;26502;51.886;15.604;2024-03-25T22:59:02;19.60;;;13.10;;
40793;SDS011;26502;51.886;15.604;2024-03-25T23:04:28;19.60;;;13.10;;
40793;SDS011;26502;51.886;15.604;2024-03-25T23:09:56;20.60;;;14.20;;
40793;SDS011;26502;51.886;15.604;2024-03-25T23:15:22;23.20;;;15.00;;
40793;SDS011;26502;51.886;15.604;2024-03-25T23:20:48;22.40;;;15.30;;
40793;SDS011;26502;51.886;15.604;2024-03-25T23:26:15;20.00;;;14.90;;
40793;SDS011;26502;51.886;15.604;2024-03-25T23:31:41;20.30;;;14.20;;
40793;SDS011;26502;51.886;15.604;2024-03-25T23:37:07;21.30;;;13.80;;
40793;SDS011;26502;51.886;15.604;2024-03-25T23:42:33;21.10;;;13.80;;
40793;SDS011;26502;51.886;15.604;2024-03-25T23:48:00;21.30;;;13.80;;
40793;SDS011;26502;51.886;15.604;2024-03-25T23:53:26;23.20;;;14.80;;
40793;SDS011;26502;51.886;15.604;2024-03-25T23:58:51;19.10;;;13.10;;
